createdAt,value
2019-02-15T00:01:48.924Z,12.27
2019-02-15T00:04:18.097Z,15.13
2019-02-15T00:06:50.218Z,11.87
2019-02-15T00:09:20.181Z,14.50
2019-02-15T00:11:49.497Z,12.83
2019-02-15T00:14:19.305Z,12.30
2019-02-15T00:16:49.150Z,14.40
2019-02-15T00:19:44.348Z,10.40
2019-02-15T00:22:14.257Z,10.37
2019-02-15T00:24:43.505Z,17.37
2019-02-15T00:27:12.749Z,13.70
2019-02-15T00:29:42.630Z,14.73
2019-02-15T00:32:12.532Z,10.63
2019-02-15T00:34:42.471Z,16.90
2019-02-15T00:37:12.390Z,16.47
2019-02-15T00:39:42.347Z,11.37
2019-02-15T00:42:11.665Z,18.73
2019-02-15T00:44:40.921Z,14.80
2019-02-15T00:47:29.101Z,13.30
2019-02-15T00:50:26.306Z,22.83
2019-02-15T00:53:04.224Z,14.07
2019-02-15T00:55:49.234Z,13.10
2019-02-15T00:58:29.041Z,9.77
2019-02-15T01:01:17.337Z,17.40
2019-02-15T01:03:58.689Z,11.23
2019-02-15T01:06:51.767Z,10.10
2019-02-15T01:09:33.064Z,11.00
2019-02-15T01:12:05.936Z,11.17
2019-02-15T01:14:35.272Z,13.90
2019-02-15T01:17:05.055Z,9.50
2019-02-15T01:19:34.921Z,12.73
2019-02-15T01:22:04.196Z,11.23
2019-02-15T01:24:33.582Z,11.23
2019-02-15T01:27:27.351Z,12.43
2019-02-15T01:30:31.344Z,7.93
2019-02-15T01:33:17.648Z,10.63
2019-02-15T01:36:11.908Z,9.83
2019-02-15T01:38:55.159Z,17.67
2019-02-15T01:41:32.889Z,10.07
2019-02-15T01:44:14.646Z,7.70
2019-02-15T01:46:54.521Z,11.23
2019-02-15T01:49:24.403Z,8.27
2019-02-15T01:51:54.359Z,7.60
2019-02-15T01:54:23.677Z,7.90
2019-02-15T01:56:52.962Z,6.17
2019-02-15T01:59:22.225Z,11.07
2019-02-15T02:01:52.562Z,11.03
2019-02-15T02:04:21.794Z,7.90
2019-02-15T02:06:51.585Z,9.30
2019-02-15T02:09:20.972Z,7.23
2019-02-15T02:11:51.059Z,10.57
2019-02-15T02:14:20.357Z,10.07
2019-02-15T02:16:50.241Z,6.47
2019-02-15T02:19:20.157Z,8.90
2019-02-15T02:21:50.062Z,7.73
2019-02-15T02:24:20.297Z,5.90
2019-02-15T02:26:50.143Z,7.10
2019-02-15T02:29:19.470Z,6.03
2019-02-15T02:31:49.241Z,6.37
2019-02-15T02:34:18.564Z,10.10
2019-02-15T02:36:51.202Z,8.23
2019-02-15T02:39:20.554Z,6.63
2019-02-15T02:41:49.783Z,5.73
2019-02-15T02:44:19.621Z,5.83
2019-02-15T02:46:48.944Z,5.90
2019-02-15T02:49:18.213Z,6.23
2019-02-15T02:51:47.369Z,4.83
2019-02-15T02:54:16.591Z,6.93
2019-02-15T02:56:45.806Z,5.10
2019-02-15T02:59:15.032Z,5.17
2019-02-15T03:01:45.105Z,10.03
2019-02-15T03:04:15.049Z,5.70
2019-02-15T03:06:44.336Z,4.77
2019-02-15T03:09:13.574Z,6.77
2019-02-15T03:11:43.390Z,5.97
2019-02-15T03:14:12.712Z,5.53
2019-02-15T03:16:42.535Z,6.20
2019-02-15T03:19:12.458Z,6.87
2019-02-15T03:21:41.758Z,7.90
2019-02-15T03:24:10.991Z,6.83
2019-02-15T03:26:40.154Z,5.03
2019-02-15T03:29:09.364Z,6.83
2019-02-15T03:31:39.163Z,5.00
2019-02-15T03:34:09.447Z,4.33
2019-02-15T03:36:57.776Z,4.13
2019-02-15T03:39:37.201Z,3.67
2019-02-15T03:42:08.998Z,5.50
2019-02-15T03:44:38.934Z,4.27
2019-02-15T03:47:09.128Z,4.63
2019-02-15T03:49:39.046Z,3.43
2019-02-15T03:52:08.259Z,3.97
2019-02-15T03:54:38.100Z,4.60
2019-02-15T03:57:07.404Z,4.93
2019-02-15T03:59:37.449Z,4.33
2019-02-15T04:02:07.388Z,4.20
2019-02-15T04:04:37.299Z,3.93
2019-02-15T04:07:06.596Z,3.40
2019-02-15T04:09:36.463Z,3.97
2019-02-15T04:12:05.766Z,3.17
2019-02-15T04:14:35.001Z,3.50
2019-02-15T04:17:04.799Z,6.20
2019-02-15T04:19:34.112Z,3.33
2019-02-15T04:22:03.309Z,4.03
2019-02-15T04:24:33.125Z,4.27
2019-02-15T04:27:03.013Z,3.70
2019-02-15T04:29:32.257Z,2.67
2019-02-15T04:32:02.067Z,3.23
2019-02-15T04:34:31.394Z,3.73
2019-02-15T04:37:00.852Z,3.63
2019-02-15T04:39:30.106Z,4.30
2019-02-15T04:41:59.914Z,4.17
2019-02-15T04:44:30.138Z,6.70
2019-02-15T04:47:00.355Z,3.60
2019-02-15T04:49:30.197Z,5.70
2019-02-15T04:52:00.165Z,3.90
2019-02-15T04:54:29.487Z,4.23
2019-02-15T04:56:59.284Z,3.60
2019-02-15T04:59:29.139Z,4.40
2019-02-15T05:01:59.036Z,4.97
2019-02-15T05:04:28.602Z,6.03
2019-02-15T05:06:59.807Z,7.43
2019-02-15T05:09:29.621Z,4.10
2019-02-15T05:11:58.925Z,7.50
2019-02-15T05:14:29.019Z,4.20
2019-02-15T05:16:58.934Z,5.93
2019-02-15T05:19:28.772Z,4.40
2019-02-15T05:21:58.344Z,6.90
2019-02-15T05:24:28.132Z,5.33
2019-02-15T05:26:57.454Z,4.37
2019-02-15T05:29:27.265Z,5.17
2019-02-15T05:31:57.181Z,7.40
2019-02-15T05:34:27.086Z,4.73
2019-02-15T05:36:56.608Z,5.23
2019-02-15T05:39:26.090Z,6.40
2019-02-15T05:41:55.620Z,4.93
2019-02-15T05:44:25.387Z,5.33
2019-02-15T05:46:55.289Z,4.80
2019-02-15T05:49:24.626Z,5.90
2019-02-15T05:51:53.843Z,6.93
2019-02-15T05:54:23.011Z,6.20
2019-02-15T05:56:52.890Z,4.20
2019-02-15T05:59:22.782Z,3.07
2019-02-15T06:01:52.704Z,6.07
2019-02-15T06:04:22.239Z,6.53
2019-02-15T06:06:52.059Z,5.17
2019-02-15T06:09:21.949Z,4.77
2019-02-15T06:11:52.230Z,3.97
2019-02-15T06:14:22.142Z,3.83
2019-02-15T06:16:51.471Z,5.37
2019-02-15T06:19:21.706Z,5.73
2019-02-15T06:21:51.633Z,3.80
2019-02-15T06:24:21.701Z,3.80
2019-02-15T06:26:52.467Z,3.47
2019-02-15T06:29:21.695Z,6.50
2019-02-15T06:31:50.929Z,4.43
2019-02-15T06:34:20.677Z,4.97
2019-02-15T06:36:49.993Z,5.03
2019-02-15T06:39:19.251Z,4.23
2019-02-15T06:41:49.015Z,6.80
2019-02-15T06:44:18.302Z,3.57
2019-02-15T06:46:48.129Z,7.17
2019-02-15T06:49:17.428Z,2.83
2019-02-15T06:51:46.651Z,2.77
2019-02-15T06:54:16.473Z,3.57
2019-02-15T06:56:45.904Z,3.27
2019-02-15T06:59:36.708Z,2.10
2019-02-15T07:02:28.118Z,5.20
2019-02-15T07:05:15.013Z,5.07
2019-02-15T07:07:44.181Z,5.37
2019-02-15T07:10:13.924Z,5.13
2019-02-15T07:12:43.246Z,8.90
2019-02-15T07:15:12.470Z,6.57
2019-02-15T07:17:42.302Z,5.17
2019-02-15T07:20:12.198Z,5.70
2019-02-15T07:22:42.117Z,5.73
2019-02-15T07:25:11.959Z,4.10
2019-02-15T07:27:41.880Z,4.33
2019-02-15T07:30:11.919Z,10.43
2019-02-15T07:32:41.677Z,3.13
2019-02-15T07:35:11.557Z,4.80
2019-02-15T07:37:40.955Z,5.57
2019-02-15T07:40:10.918Z,9.10
2019-02-15T07:42:40.831Z,5.70
2019-02-15T07:45:11.272Z,3.40
2019-02-15T07:47:41.217Z,4.83
2019-02-15T07:50:11.346Z,3.63
2019-02-15T07:52:41.100Z,4.47
2019-02-15T07:55:11.115Z,7.00
2019-02-15T07:57:40.436Z,6.23
2019-02-15T08:00:11.001Z,8.57
2019-02-15T08:02:40.779Z,6.00
2019-02-15T08:05:12.885Z,4.27
2019-02-15T08:07:43.237Z,6.60
2019-02-15T08:10:13.049Z,4.20
2019-02-15T08:12:42.898Z,4.93
2019-02-15T08:15:12.830Z,5.10
2019-02-15T08:17:42.784Z,6.20
2019-02-15T08:20:12.909Z,5.60
2019-02-15T08:22:42.280Z,4.60
2019-02-15T08:25:12.027Z,3.87
2019-02-15T08:27:41.993Z,9.10
2019-02-15T08:30:11.978Z,8.07
2019-02-15T08:32:41.920Z,4.87
2019-02-15T08:35:11.842Z,5.83
2019-02-15T08:37:41.219Z,9.23
2019-02-15T08:40:10.454Z,7.77
2019-02-15T08:42:39.708Z,7.37
2019-02-15T08:45:09.801Z,4.50
2019-02-15T08:47:40.101Z,5.57
2019-02-15T08:50:10.506Z,10.57
2019-02-15T08:52:39.829Z,8.67
2019-02-15T08:55:10.449Z,6.43
2019-02-15T08:57:40.377Z,8.03
2019-02-15T09:00:11.190Z,11.97
2019-02-15T09:02:41.129Z,8.37
2019-02-15T09:05:11.920Z,8.37
2019-02-15T09:07:41.206Z,8.37
2019-02-15T09:10:10.937Z,9.23
2019-02-15T09:12:40.169Z,7.23
2019-02-15T09:15:15.606Z,15.17
2019-02-15T09:17:45.506Z,7.77
2019-02-15T09:20:14.753Z,7.13
2019-02-15T09:22:43.950Z,8.23
2019-02-15T09:25:13.722Z,8.93
2019-02-15T09:27:48.185Z,8.70
2019-02-15T09:30:17.792Z,9.10
2019-02-15T09:32:46.982Z,11.10
2019-02-15T09:35:16.254Z,7.03
2019-02-15T09:37:46.051Z,9.57
2019-02-15T09:40:15.468Z,9.00
2019-02-15T09:42:44.663Z,10.13
2019-02-15T09:45:14.422Z,14.60
2019-02-15T09:47:43.776Z,13.20
2019-02-15T09:50:13.001Z,8.40
2019-02-15T09:52:42.879Z,9.33
2019-02-15T09:55:12.818Z,10.03
2019-02-15T09:57:42.720Z,7.27
2019-02-15T10:00:12.725Z,8.97
2019-02-15T10:02:42.569Z,8.47
2019-02-15T10:05:11.893Z,11.50
2019-02-15T10:07:41.637Z,9.70
2019-02-15T10:10:11.561Z,9.07
2019-02-15T10:12:41.391Z,7.30
2019-02-15T10:15:10.804Z,9.20
2019-02-15T10:17:40.015Z,14.17
2019-02-15T10:20:09.273Z,7.50
2019-02-15T10:22:38.431Z,12.83
2019-02-15T10:25:07.948Z,8.43
2019-02-15T10:27:37.819Z,8.83
2019-02-15T10:30:07.521Z,9.90
2019-02-15T10:32:36.837Z,12.93
2019-02-15T10:35:07.863Z,13.87
2019-02-15T10:37:37.202Z,12.83
2019-02-15T10:40:07.724Z,11.13
2019-02-15T10:42:37.116Z,8.83
2019-02-15T10:45:08.272Z,17.03
2019-02-15T10:47:37.630Z,17.03
2019-02-15T10:50:08.113Z,11.17
2019-02-15T10:52:37.507Z,11.13
2019-02-15T10:55:07.068Z,12.00
2019-02-15T10:57:36.471Z,15.67
2019-02-15T11:00:06.915Z,13.60
2019-02-15T11:02:36.208Z,9.03
2019-02-15T11:05:05.445Z,13.17
2019-02-15T11:07:35.298Z,12.07
2019-02-15T11:10:05.806Z,15.43
2019-02-15T11:12:35.152Z,19.57
2019-02-15T11:15:05.418Z,12.37
2019-02-15T11:17:35.389Z,9.33
2019-02-15T11:20:05.646Z,12.90
2019-02-15T11:22:35.533Z,13.20
2019-02-15T11:25:06.489Z,9.17
2019-02-15T11:27:35.750Z,13.73
2019-02-15T11:30:07.033Z,9.50
2019-02-15T11:32:36.854Z,11.00
2019-02-15T11:35:06.735Z,8.60
2019-02-15T11:37:36.099Z,7.17
2019-02-15T11:40:07.061Z,10.90
2019-02-15T11:42:36.997Z,8.00
2019-02-15T11:45:07.609Z,8.40
2019-02-15T11:47:36.951Z,14.47
2019-02-15T11:50:06.349Z,6.03
2019-02-15T11:52:35.867Z,12.37
2019-02-15T11:55:05.361Z,5.90
2019-02-15T11:57:35.194Z,6.00
2019-02-15T12:00:13.914Z,13.27
2019-02-15T12:02:37.207Z,7.40
2019-02-15T12:05:06.880Z,7.20
2019-02-15T12:07:36.626Z,4.63
2019-02-15T12:10:06.042Z,5.47
2019-02-15T12:12:35.288Z,11.60
2019-02-15T12:15:05.723Z,6.30
2019-02-15T12:17:35.649Z,5.47
2019-02-15T12:20:05.328Z,5.73
2019-02-15T12:22:35.146Z,8.67
2019-02-15T12:25:05.107Z,7.13
2019-02-15T12:27:34.489Z,10.80
2019-02-15T12:30:04.542Z,11.33
2019-02-15T12:32:33.907Z,5.23
2019-02-15T12:35:03.689Z,7.00
2019-02-15T12:37:34.177Z,5.07
2019-02-15T12:40:04.097Z,11.77
2019-02-15T12:42:33.978Z,8.47
2019-02-15T12:45:03.501Z,8.27
2019-02-15T12:47:33.343Z,6.37
2019-02-15T12:50:02.654Z,7.83
2019-02-15T12:52:32.826Z,10.67
2019-02-15T12:55:03.916Z,7.10
2019-02-15T12:57:33.874Z,8.70
2019-02-15T13:00:05.457Z,6.37
2019-02-15T13:02:35.357Z,8.20
2019-02-15T13:05:05.509Z,15.00
2019-02-15T13:07:34.820Z,5.67
2019-02-15T13:10:05.373Z,5.00
2019-02-15T13:12:35.212Z,7.43
2019-02-15T13:15:05.870Z,7.57
2019-02-15T13:17:35.174Z,6.77
2019-02-15T13:20:05.294Z,6.33
2019-02-15T13:22:35.254Z,5.47
2019-02-15T13:25:05.720Z,5.47
2019-02-15T13:27:35.570Z,7.00
2019-02-15T13:30:05.164Z,6.27
2019-02-15T13:32:35.289Z,4.97
2019-02-15T13:35:05.837Z,8.10
2019-02-15T13:37:35.182Z,9.93
2019-02-15T13:40:05.341Z,7.40
2019-02-15T13:42:34.641Z,7.10
2019-02-15T13:45:04.690Z,4.47
2019-02-15T13:47:35.222Z,4.30
2019-02-15T13:50:05.853Z,6.27
2019-02-15T13:52:35.167Z,8.47
2019-02-15T13:55:04.761Z,6.67
2019-02-15T13:57:34.508Z,5.93
2019-02-15T14:00:05.179Z,5.03
2019-02-15T14:02:35.090Z,10.53
2019-02-15T14:05:05.424Z,9.73
2019-02-15T14:07:34.768Z,7.47
2019-02-15T14:10:05.940Z,7.13
2019-02-15T14:12:35.839Z,9.27
2019-02-15T14:15:05.471Z,8.33
2019-02-15T14:17:43.884Z,12.87
2019-02-15T14:20:08.177Z,7.47
2019-02-15T14:22:38.906Z,10.03
2019-02-15T14:25:08.602Z,7.53
2019-02-15T14:27:37.732Z,8.30
2019-02-15T14:30:07.712Z,6.70
2019-02-15T14:32:37.173Z,8.23
2019-02-15T14:35:06.867Z,6.73
2019-02-15T14:37:36.670Z,5.27
2019-02-15T14:40:06.448Z,5.20
2019-02-15T14:42:35.646Z,5.90
2019-02-15T14:45:05.801Z,5.43
2019-02-15T14:47:35.701Z,9.07
2019-02-15T14:50:05.220Z,5.73
2019-02-15T14:52:35.012Z,7.37
2019-02-15T14:55:05.599Z,10.33
2019-02-15T14:57:35.494Z,11.60
2019-02-15T15:00:06.654Z,9.63
2019-02-15T15:02:36.545Z,7.57
2019-02-15T15:05:06.152Z,6.97
2019-02-15T15:07:36.313Z,8.50
2019-02-15T15:10:07.606Z,10.97
2019-02-15T15:12:36.993Z,6.73
2019-02-15T15:15:06.714Z,6.77
2019-02-15T15:17:35.955Z,8.83
2019-02-15T15:20:06.860Z,8.60
2019-02-15T15:22:36.791Z,7.97
2019-02-15T15:25:07.867Z,10.57
2019-02-15T15:27:37.781Z,12.80
2019-02-15T15:30:07.645Z,9.07
2019-02-15T15:32:36.846Z,13.43
2019-02-15T15:35:07.011Z,6.80
2019-02-15T15:37:36.635Z,10.80
2019-02-15T15:40:07.354Z,5.10
2019-02-15T15:42:37.277Z,10.07
2019-02-15T15:45:08.789Z,5.73
2019-02-15T15:47:38.715Z,4.63
2019-02-15T15:50:08.948Z,4.73
2019-02-15T15:52:38.236Z,5.57
2019-02-15T15:55:07.813Z,6.13
2019-02-15T15:57:37.574Z,8.70
2019-02-15T16:00:07.853Z,9.43
2019-02-15T16:02:37.089Z,9.60
2019-02-15T16:05:06.760Z,10.97
2019-02-15T16:07:36.574Z,8.03
2019-02-15T16:10:06.525Z,7.83
2019-02-15T16:12:35.728Z,7.20
2019-02-15T16:15:06.209Z,6.33
2019-02-15T16:17:36.018Z,6.83
2019-02-15T16:20:05.650Z,4.10
2019-02-15T16:22:35.031Z,4.40
2019-02-15T16:25:04.805Z,6.50
2019-02-15T16:27:33.957Z,9.83
2019-02-15T16:30:03.905Z,5.50
2019-02-15T16:32:33.207Z,8.70
2019-02-15T16:35:02.433Z,5.90
2019-02-15T16:37:32.322Z,7.33
2019-02-15T16:40:01.631Z,6.73
2019-02-15T16:42:31.454Z,5.20
2019-02-15T16:45:00.710Z,7.20
2019-02-15T16:47:29.934Z,6.67
2019-02-15T16:49:59.745Z,10.47
2019-02-15T16:52:29.654Z,6.03
2019-02-15T16:54:59.574Z,6.93
2019-02-15T16:57:29.009Z,7.43
2019-02-15T16:59:58.763Z,4.70
2019-02-15T17:02:28.140Z,4.47
2019-02-15T17:04:57.942Z,6.93
2019-02-15T17:07:27.882Z,11.73
2019-02-15T17:09:57.790Z,6.50
2019-02-15T17:12:27.737Z,8.20
2019-02-15T17:14:57.251Z,9.80
2019-02-15T17:17:26.505Z,8.27
2019-02-15T17:19:56.376Z,6.83
2019-02-15T17:22:26.330Z,9.53
2019-02-15T17:24:56.222Z,8.40
2019-02-15T17:27:26.160Z,6.73
2019-02-15T17:29:55.457Z,5.83
2019-02-15T17:32:25.230Z,7.83
2019-02-15T17:34:55.119Z,6.90
2019-02-15T17:37:25.040Z,10.33
2019-02-15T17:39:54.922Z,10.00
2019-02-15T17:42:24.674Z,8.97
2019-02-15T17:44:54.563Z,8.13
2019-02-15T17:47:23.930Z,8.33
2019-02-15T17:49:53.726Z,10.03
2019-02-15T17:52:23.974Z,8.13
2019-02-15T17:54:53.994Z,9.43
2019-02-15T17:57:24.099Z,11.57
2019-02-15T17:59:54.043Z,14.77
2019-02-15T18:02:23.353Z,8.90
2019-02-15T18:04:53.083Z,8.43
2019-02-15T18:07:22.992Z,5.93
2019-02-15T18:09:52.297Z,8.87
2019-02-15T18:12:21.496Z,13.13
2019-02-15T18:14:51.348Z,9.77
2019-02-15T18:17:21.474Z,9.53
2019-02-15T18:19:51.331Z,10.67
2019-02-15T18:22:20.705Z,10.20
2019-02-15T18:24:49.976Z,9.03
2019-02-15T18:27:19.830Z,8.53
2019-02-15T18:29:49.084Z,8.57
2019-02-15T18:32:19.255Z,9.90
2019-02-15T18:34:49.409Z,10.33
2019-02-15T18:37:18.743Z,10.30
2019-02-15T18:39:47.944Z,9.97
2019-02-15T18:42:18.191Z,13.93
2019-02-15T18:44:48.282Z,14.70
2019-02-15T18:47:17.662Z,10.20
2019-02-15T18:49:46.917Z,9.70
2019-02-15T18:52:16.132Z,11.03
2019-02-15T18:54:45.888Z,12.17
2019-02-15T18:57:15.814Z,11.73
2019-02-15T18:59:45.732Z,13.73
2019-02-15T19:02:15.692Z,10.90
2019-02-15T19:04:44.993Z,12.27
2019-02-15T19:07:14.241Z,9.10
2019-02-15T19:09:43.966Z,11.70
2019-02-15T19:12:13.287Z,16.13
2019-02-15T19:14:42.421Z,8.90
2019-02-15T19:17:11.677Z,10.30
2019-02-15T19:19:43.258Z,7.17
2019-02-15T19:22:13.009Z,9.77
2019-02-15T19:24:42.241Z,19.87
2019-02-15T19:27:11.771Z,11.13
2019-02-15T19:29:40.982Z,13.17
2019-02-15T19:32:10.139Z,8.03
2019-02-15T19:34:40.037Z,15.03
2019-02-15T19:37:09.959Z,17.37
2019-02-15T19:39:39.849Z,13.73
2019-02-15T19:42:16.645Z,12.40
2019-02-15T19:44:45.888Z,17.07
2019-02-15T19:47:16.059Z,20.33
2019-02-15T19:49:45.413Z,17.77
2019-02-15T19:52:14.609Z,18.77
2019-02-15T19:54:43.804Z,13.47
2019-02-15T19:57:12.944Z,13.63
2019-02-15T19:59:42.209Z,12.20
2019-02-15T20:02:12.086Z,14.90
2019-02-15T20:04:41.455Z,13.80
2019-02-15T20:07:11.285Z,12.60
2019-02-15T20:09:41.235Z,12.70
2019-02-15T20:12:11.160Z,19.87
2019-02-15T20:14:41.115Z,14.43
2019-02-15T20:17:11.006Z,11.83
2019-02-15T20:19:48.211Z,18.03
2019-02-15T20:22:11.711Z,18.53
2019-02-15T20:24:41.053Z,17.63
2019-02-15T20:27:10.853Z,16.37
2019-02-15T20:29:49.092Z,18.37
2019-02-15T20:32:11.556Z,14.07
2019-02-15T20:34:45.334Z,19.47
2019-02-15T20:37:11.742Z,14.13
2019-02-15T20:39:40.977Z,19.47
2019-02-15T20:42:10.736Z,16.07
2019-02-15T20:44:40.689Z,21.40
2019-02-15T20:47:10.626Z,17.77
2019-02-15T20:49:39.886Z,22.37
2019-02-15T20:52:09.118Z,28.63
2019-02-15T20:54:38.960Z,22.13
2019-02-15T20:57:08.206Z,17.47
2019-02-15T20:59:38.045Z,20.33
2019-02-15T21:02:07.341Z,19.87
2019-02-15T21:04:37.191Z,22.10
2019-02-15T21:07:06.504Z,16.77
2019-02-15T21:09:36.366Z,14.33
2019-02-15T21:12:06.298Z,12.37
2019-02-15T21:14:35.559Z,12.90
2019-02-15T21:17:04.725Z,11.30
2019-02-15T21:19:33.974Z,12.57
2019-02-15T21:22:03.718Z,17.43
2019-02-15T21:24:33.633Z,15.07
2019-02-15T21:27:03.555Z,18.27
2019-02-15T21:29:32.886Z,11.43
2019-02-15T21:32:02.057Z,12.30
2019-02-15T21:34:33.409Z,13.70
2019-02-15T21:37:03.530Z,16.20
2019-02-15T21:39:32.888Z,11.23
2019-02-15T21:42:02.704Z,11.57
2019-02-15T21:44:32.629Z,10.07
2019-02-15T21:47:01.929Z,16.07
2019-02-15T21:49:31.741Z,13.00
2019-02-15T21:52:01.635Z,11.33
2019-02-15T21:54:31.566Z,11.10
2019-02-15T21:57:00.914Z,12.23
2019-02-15T21:59:30.344Z,14.80
2019-02-15T22:02:00.084Z,11.30
2019-02-15T22:04:29.389Z,14.03
2019-02-15T22:06:59.337Z,17.87
2019-02-15T22:09:29.254Z,15.57
2019-02-15T22:12:05.299Z,14.40
2019-02-15T22:14:35.459Z,17.47
2019-02-15T22:17:05.389Z,16.93
2019-02-15T22:19:35.284Z,11.10
2019-02-15T22:22:05.231Z,12.70
2019-02-15T22:24:35.133Z,14.43
2019-02-15T22:27:05.053Z,10.30
2019-02-15T22:29:34.338Z,10.73
2019-02-15T22:32:04.115Z,13.37
2019-02-15T22:34:34.293Z,10.07
2019-02-15T22:37:03.650Z,10.63
2019-02-15T22:39:32.856Z,13.93
2019-02-15T22:42:02.026Z,12.00
2019-02-15T22:44:31.838Z,10.70
2019-02-15T22:47:01.713Z,12.63
2019-02-15T22:49:42.921Z,11.90
2019-02-15T22:52:02.664Z,10.07
2019-02-15T22:54:32.472Z,12.03
2019-02-15T22:57:02.381Z,8.77
2019-02-15T22:59:32.356Z,8.97
2019-02-15T23:02:02.333Z,11.33
2019-02-15T23:04:32.288Z,14.30
2019-02-15T23:07:02.259Z,10.43
2019-02-15T23:09:32.145Z,10.73
2019-02-15T23:12:01.495Z,11.40
2019-02-15T23:14:31.293Z,12.13
2019-02-15T23:17:00.636Z,11.53
2019-02-15T23:19:29.769Z,8.63
2019-02-15T23:21:59.947Z,9.17
2019-02-15T23:24:29.850Z,10.50
2019-02-15T23:26:59.798Z,7.33
2019-02-15T23:29:29.110Z,9.33
2019-02-15T23:31:58.892Z,9.43
2019-02-15T23:34:28.348Z,14.07
2019-02-15T23:36:58.138Z,8.17
2019-02-15T23:39:28.041Z,9.70
2019-02-15T23:41:57.998Z,9.23
2019-02-15T23:44:27.302Z,10.63
2019-02-15T23:46:57.057Z,9.30
2019-02-15T23:49:26.981Z,11.17
2019-02-15T23:51:56.817Z,9.13
2019-02-15T23:54:26.954Z,9.93
2019-02-15T23:56:56.867Z,10.70
2019-02-15T23:59:26.810Z,10.67
